createdAt,value
2022-10-19T00:02:08.734Z,9.99
2022-10-19T00:04:36.832Z,9.99
2022-10-19T00:07:04.479Z,9.98
2022-10-19T00:09:32.084Z,9.99
2022-10-19T00:11:59.769Z,9.99
2022-10-19T00:14:27.377Z,9.98
2022-10-19T00:16:55.751Z,9.98
2022-10-19T00:19:24.928Z,9.99
2022-10-19T00:21:52.645Z,10.01
2022-10-19T00:24:21.022Z,10.02
2022-10-19T00:26:49.048Z,10.05
2022-10-19T00:29:17.550Z,10.08
2022-10-19T00:31:45.384Z,10.08
2022-10-19T00:34:13.032Z,10.08
2022-10-19T00:36:41.863Z,10.08
2022-10-19T00:39:13.398Z,10.08
2022-10-19T00:41:41.557Z,10.06
2022-10-19T00:44:11.923Z,10.04
2022-10-19T00:46:42.420Z,10.05
2022-10-19T00:49:17.916Z,10.05
2022-10-19T00:51:48.399Z,10.04
2022-10-19T00:54:17.294Z,10.03
2022-10-19T00:56:46.086Z,10.03
2022-10-19T00:59:15.584Z,10.02
2022-10-19T01:01:44.698Z,10.01
2022-10-19T01:04:12.646Z,10.02
2022-10-19T01:06:40.801Z,10.01
2022-10-19T01:09:08.874Z,10.03
2022-10-19T01:11:56.762Z,10.03
2022-10-19T01:14:33.677Z,10.02
2022-10-19T01:17:16.568Z,10.04
2022-10-19T01:19:50.222Z,10.04
2022-10-19T01:22:20.944Z,10.06
2022-10-19T01:24:57.978Z,10.05
2022-10-19T01:27:28.708Z,10.03
2022-10-19T01:30:12.559Z,9.98
2022-10-19T01:32:59.341Z,9.94
2022-10-19T01:35:50.300Z,9.92
2022-10-19T01:38:24.118Z,9.90
2022-10-19T01:40:54.921Z,9.91
2022-10-19T01:43:25.612Z,9.88
2022-10-19T01:46:13.589Z,9.84
2022-10-19T01:48:44.796Z,9.77
2022-10-19T01:51:14.989Z,9.74
2022-10-19T01:53:46.326Z,9.73
2022-10-19T01:56:14.870Z,9.76
2022-10-19T01:58:44.254Z,9.74
2022-10-19T02:01:13.511Z,9.73
2022-10-19T02:03:42.382Z,9.75
2022-10-19T02:06:11.649Z,9.76
2022-10-19T02:08:47.201Z,9.74
2022-10-19T02:11:16.349Z,9.71
2022-10-19T02:13:45.502Z,9.69
2022-10-19T02:16:16.424Z,9.70
2022-10-19T02:18:49.219Z,9.69
2022-10-19T02:21:17.130Z,9.67
2022-10-19T02:23:44.798Z,9.66
2022-10-19T02:26:12.827Z,9.64
2022-10-19T02:28:40.658Z,9.65
2022-10-19T02:31:08.906Z,9.64
2022-10-19T02:33:36.836Z,9.66
2022-10-19T02:36:04.674Z,9.66
2022-10-19T02:38:32.348Z,9.65
2022-10-19T02:41:03.037Z,9.67
2022-10-19T02:43:33.732Z,9.69
2022-10-19T02:46:04.466Z,9.65
2022-10-19T02:48:33.785Z,9.65
2022-10-19T02:51:01.423Z,9.63
2022-10-19T02:53:29.278Z,9.61
2022-10-19T02:55:56.988Z,9.67
2022-10-19T02:58:24.630Z,9.66
2022-10-19T03:00:52.295Z,9.70
2022-10-19T03:03:19.992Z,9.71
2022-10-19T03:05:47.638Z,9.65
2022-10-19T03:08:15.276Z,9.59
2022-10-19T03:10:42.963Z,9.58
2022-10-19T03:13:10.609Z,9.57
2022-10-19T03:15:38.286Z,9.59
2022-10-19T03:18:05.916Z,9.57
2022-10-19T03:20:33.706Z,9.58
2022-10-19T03:23:01.354Z,9.58
2022-10-19T03:25:29.076Z,9.56
2022-10-19T03:27:56.707Z,9.55
2022-10-19T03:30:24.400Z,9.56
2022-10-19T03:32:52.049Z,9.55
2022-10-19T03:35:19.669Z,9.57
2022-10-19T03:37:47.395Z,9.55
2022-10-19T03:40:15.088Z,9.54
2022-10-19T03:42:42.663Z,9.52
2022-10-19T03:45:10.424Z,9.52
2022-10-19T03:47:38.068Z,9.51
2022-10-19T03:50:06.177Z,9.47
2022-10-19T03:52:33.817Z,9.45
2022-10-19T03:55:01.478Z,9.44
2022-10-19T03:57:29.153Z,9.41
2022-10-19T03:59:57.339Z,9.41
2022-10-19T04:02:24.979Z,9.41
2022-10-19T04:04:52.617Z,9.42
2022-10-19T04:07:20.200Z,9.40
2022-10-19T04:09:47.849Z,9.41
2022-10-19T04:12:15.492Z,9.37
2022-10-19T04:14:56.845Z,9.38
2022-10-19T04:17:25.993Z,9.39
2022-10-19T04:19:53.709Z,9.38
2022-10-19T04:22:21.363Z,9.39
2022-10-19T04:24:49.045Z,9.41
2022-10-19T04:27:16.854Z,9.42
2022-10-19T04:29:44.481Z,9.44
2022-10-19T04:32:12.147Z,9.40
2022-10-19T04:34:40.201Z,9.43
2022-10-19T04:37:08.068Z,9.37
2022-10-19T04:39:39.597Z,9.41
2022-10-19T04:42:07.237Z,9.42
2022-10-19T04:44:34.835Z,9.40
2022-10-19T04:47:02.562Z,9.41
2022-10-19T04:49:30.181Z,9.43
2022-10-19T04:51:57.803Z,9.39
2022-10-19T04:54:25.430Z,9.36
2022-10-19T04:56:54.062Z,9.35
2022-10-19T04:59:21.682Z,9.31
2022-10-19T05:01:49.328Z,9.30
2022-10-19T05:04:17.025Z,9.30
2022-10-19T05:06:44.688Z,9.29
2022-10-19T05:09:12.309Z,9.29
2022-10-19T05:11:39.952Z,9.28
2022-10-19T05:14:07.620Z,9.27
2022-10-19T05:16:35.262Z,9.26
2022-10-19T05:19:03.152Z,9.25
2022-10-19T05:21:30.824Z,9.25
2022-10-19T05:23:58.473Z,9.26
2022-10-19T05:26:27.120Z,9.25
2022-10-19T05:28:56.894Z,9.25
2022-10-19T05:31:26.416Z,9.25
2022-10-19T05:33:54.242Z,9.25
2022-10-19T05:36:25.668Z,9.25
2022-10-19T05:38:54.409Z,9.25
2022-10-19T05:41:22.893Z,9.25
2022-10-19T05:43:54.826Z,9.25
2022-10-19T05:46:22.566Z,9.25
2022-10-19T05:48:50.257Z,9.26
2022-10-19T05:51:19.246Z,9.25
2022-10-19T05:53:46.950Z,9.27
2022-10-19T05:56:16.636Z,9.27
2022-10-19T05:58:44.641Z,9.27
2022-10-19T06:01:13.117Z,9.26
2022-10-19T06:03:40.736Z,9.27
2022-10-19T06:06:09.064Z,9.28
2022-10-19T06:08:37.558Z,9.28
2022-10-19T06:11:07.279Z,9.31
2022-10-19T06:13:35.416Z,9.35
2022-10-19T06:16:03.530Z,9.36
2022-10-19T06:18:31.394Z,9.36
2022-10-19T06:21:06.874Z,9.38
2022-10-19T06:23:35.758Z,9.39
2022-10-19T06:26:04.828Z,9.40
2022-10-19T06:28:32.770Z,9.43
2022-10-19T06:31:00.433Z,9.45
2022-10-19T06:33:28.378Z,9.46
2022-10-19T06:35:56.197Z,9.50
2022-10-19T06:38:23.914Z,9.52
2022-10-19T06:40:51.623Z,9.50
2022-10-19T06:43:19.240Z,9.53
2022-10-19T06:45:46.894Z,9.57
2022-10-19T06:48:14.501Z,9.58
2022-10-19T06:50:42.126Z,9.62
2022-10-19T06:53:09.783Z,9.64
2022-10-19T06:55:37.806Z,9.68
2022-10-19T06:58:05.434Z,9.68
2022-10-19T07:00:33.100Z,9.69
2022-10-19T07:03:01.190Z,9.72
2022-10-19T07:05:29.086Z,9.74
2022-10-19T07:07:57.659Z,9.77
2022-10-19T07:10:25.383Z,9.76
2022-10-19T07:12:53.317Z,9.75
2022-10-19T07:15:21.017Z,9.76
2022-10-19T07:17:48.652Z,9.84
2022-10-19T07:20:16.332Z,9.87
2022-10-19T07:22:43.964Z,9.95
2022-10-19T07:25:12.115Z,9.94
2022-10-19T07:27:40.669Z,10.02
2022-10-19T07:30:08.675Z,10.09
2022-10-19T07:32:36.387Z,10.10
2022-10-19T07:35:04.209Z,10.15
2022-10-19T07:37:32.127Z,10.27
2022-10-19T07:40:00.207Z,10.26
2022-10-19T07:42:30.499Z,10.29
2022-10-19T07:44:58.461Z,10.31
2022-10-19T07:47:26.098Z,10.30
2022-10-19T07:49:53.738Z,10.27
2022-10-19T07:52:21.387Z,10.28
2022-10-19T07:54:49.787Z,10.35
2022-10-19T07:57:17.538Z,10.43
2022-10-19T07:59:45.154Z,10.46
2022-10-19T08:02:17.075Z,10.48
2022-10-19T08:05:02.945Z,10.49
2022-10-19T08:07:35.298Z,10.59
2022-10-19T08:10:04.336Z,10.66
2022-10-19T08:12:35.111Z,10.64
2022-10-19T08:15:03.210Z,10.59
2022-10-19T08:17:30.926Z,10.59
2022-10-19T08:19:58.790Z,10.68
2022-10-19T08:22:26.467Z,10.78
2022-10-19T08:24:54.086Z,10.87
2022-10-19T08:27:21.988Z,10.83
2022-10-19T08:29:50.627Z,10.85
2022-10-19T08:32:18.729Z,10.90
2022-10-19T08:34:46.417Z,11.02
2022-10-19T08:37:25.775Z,10.98
2022-10-19T08:40:00.590Z,11.02
2022-10-19T08:42:50.611Z,11.05
2022-10-19T08:45:18.249Z,11.03
2022-10-19T08:47:55.152Z,11.01
2022-10-19T08:50:27.431Z,10.97
2022-10-19T08:53:02.594Z,10.98
2022-10-19T08:55:58.647Z,10.99
2022-10-19T08:58:30.288Z,10.90
2022-10-19T09:01:07.141Z,10.83
2022-10-19T09:03:56.505Z,10.81
2022-10-19T09:06:32.053Z,10.90
2022-10-19T09:08:59.933Z,11.06
2022-10-19T09:11:30.067Z,11.12
2022-10-19T09:14:18.408Z,11.20
2022-10-19T09:16:46.485Z,11.16
2022-10-19T09:19:25.764Z,11.13
2022-10-19T09:21:58.125Z,11.23
2022-10-19T09:24:31.743Z,11.33
2022-10-19T09:27:01.199Z,11.28
2022-10-19T09:29:47.562Z,11.31
2022-10-19T09:32:18.544Z,11.30
2022-10-19T09:34:57.906Z,11.33
2022-10-19T09:37:26.847Z,11.29
2022-10-19T09:39:56.304Z,11.27
2022-10-19T09:42:24.158Z,11.36
2022-10-19T09:44:52.601Z,11.41
2022-10-19T09:47:20.185Z,11.51
2022-10-19T09:49:48.937Z,11.63
2022-10-19T09:52:24.921Z,11.68
2022-10-19T09:55:00.277Z,11.66
2022-10-19T09:57:28.483Z,11.71
2022-10-19T09:59:56.604Z,11.72
2022-10-19T10:02:31.930Z,11.81
2022-10-19T10:05:03.372Z,11.83
2022-10-19T10:07:37.033Z,11.80
2022-10-19T10:10:26.834Z,11.82
2022-10-19T10:12:58.750Z,11.79
2022-10-19T10:15:29.059Z,11.85
2022-10-19T10:17:57.358Z,11.88
2022-10-19T10:20:27.992Z,11.90
2022-10-19T10:23:00.456Z,11.81
2022-10-19T10:25:35.293Z,11.73
2022-10-19T10:28:19.896Z,11.82
2022-10-19T10:30:48.771Z,12.06
2022-10-19T10:33:26.982Z,12.14
2022-10-19T10:36:03.442Z,12.26
2022-10-19T10:38:33.442Z,12.51
2022-10-19T10:41:04.587Z,12.71
2022-10-19T10:43:33.576Z,12.64
2022-10-19T10:46:06.572Z,12.70
2022-10-19T10:48:39.294Z,12.75
2022-10-19T10:51:20.953Z,12.61
2022-10-19T10:53:49.521Z,12.66
2022-10-19T10:56:25.824Z,12.80
2022-10-19T10:58:59.502Z,12.97
2022-10-19T11:01:29.249Z,12.91
2022-10-19T11:04:10.765Z,12.77
2022-10-19T11:06:44.589Z,12.72
2022-10-19T11:09:35.065Z,12.68
2022-10-19T11:12:04.516Z,12.75
2022-10-19T11:14:50.453Z,12.88
2022-10-19T11:17:27.674Z,12.88
2022-10-19T11:19:55.842Z,12.32
2022-10-19T11:22:27.238Z,11.81
2022-10-19T11:25:02.204Z,11.52
2022-10-19T11:27:40.373Z,11.19
2022-10-19T11:30:14.115Z,11.13
2022-10-19T11:33:00.616Z,11.04
2022-10-19T11:35:43.464Z,11.02
2022-10-19T11:38:28.709Z,11.02
2022-10-19T11:41:19.517Z,11.07
2022-10-19T11:43:58.563Z,11.01
2022-10-19T11:46:34.305Z,11.00
2022-10-19T11:49:08.286Z,11.00
2022-10-19T11:51:40.767Z,11.05
2022-10-19T11:54:23.679Z,11.16
2022-10-19T11:57:11.968Z,11.26
2022-10-19T11:59:49.562Z,11.23
2022-10-19T12:02:36.692Z,11.31
2022-10-19T12:05:10.382Z,11.44
2022-10-19T12:07:43.833Z,11.44
2022-10-19T12:10:17.386Z,11.40
2022-10-19T12:12:49.644Z,11.32
2022-10-19T12:15:35.732Z,11.30
2022-10-19T12:18:07.334Z,11.32
2022-10-19T12:20:55.237Z,11.34
2022-10-19T12:23:33.165Z,11.50
2022-10-19T12:26:03.041Z,11.59
2022-10-19T12:28:32.194Z,11.65
2022-10-19T12:31:01.560Z,11.70
2022-10-19T12:33:35.912Z,11.90
2022-10-19T12:36:03.751Z,11.96
2022-10-19T12:38:34.549Z,12.15
2022-10-19T12:41:26.127Z,12.34
2022-10-19T12:44:00.657Z,12.49
2022-10-19T12:46:28.254Z,12.43
2022-10-19T12:49:14.984Z,12.37
2022-10-19T12:51:46.546Z,12.26
2022-10-19T12:54:14.323Z,12.21
2022-10-19T12:56:53.665Z,12.13
2022-10-19T12:59:35.327Z,12.10
2022-10-19T13:02:05.342Z,12.11
2022-10-19T13:04:35.913Z,12.26
2022-10-19T13:07:05.589Z,12.35
2022-10-19T13:09:39.099Z,12.46
2022-10-19T13:12:19.598Z,12.51
2022-10-19T13:14:57.657Z,12.61
2022-10-19T13:17:35.002Z,12.58
2022-10-19T13:20:25.496Z,12.63
2022-10-19T13:23:05.314Z,12.64
2022-10-19T13:25:39.836Z,12.61
2022-10-19T13:28:07.526Z,12.67
2022-10-19T13:30:42.306Z,12.76
2022-10-19T13:33:25.403Z,12.78
2022-10-19T13:36:11.686Z,12.84
2022-10-19T13:38:40.625Z,12.97
2022-10-19T13:41:11.031Z,12.97
2022-10-19T13:43:57.714Z,12.90
2022-10-19T13:46:28.514Z,12.87
2022-10-19T13:49:05.544Z,12.80
2022-10-19T13:51:36.269Z,12.77
2022-10-19T13:54:16.198Z,12.68
2022-10-19T13:57:04.319Z,12.56
2022-10-19T13:59:50.741Z,12.48
2022-10-19T14:02:46.258Z,12.41
2022-10-19T14:05:32.614Z,12.39
2022-10-19T14:08:00.292Z,12.40
2022-10-19T14:10:33.150Z,12.39
2022-10-19T14:13:14.188Z,12.33
2022-10-19T14:15:50.208Z,12.24
2022-10-19T14:18:25.908Z,12.14
2022-10-19T14:20:57.932Z,12.11
2022-10-19T14:23:30.192Z,12.04
2022-10-19T14:26:03.522Z,11.97
2022-10-19T14:28:32.041Z,11.86
2022-10-19T14:30:59.775Z,11.86
2022-10-19T14:33:29.813Z,11.84
2022-10-19T14:35:57.422Z,11.79
2022-10-19T14:38:25.362Z,11.72
2022-10-19T14:40:53.202Z,11.51
2022-10-19T14:43:25.544Z,11.35
2022-10-19T14:46:08.417Z,11.21
2022-10-19T14:48:37.411Z,11.17
2022-10-19T14:51:09.753Z,11.18
2022-10-19T14:53:43.012Z,11.16
2022-10-19T14:56:10.597Z,11.09
2022-10-19T14:58:47.137Z,11.08
2022-10-19T15:01:16.279Z,11.20
2022-10-19T15:03:45.048Z,11.16
2022-10-19T15:06:21.597Z,11.02
2022-10-19T15:11:33.091Z,11.00
2022-10-19T15:14:03.475Z,10.97
2022-10-19T15:16:32.666Z,10.95
2022-10-19T15:19:07.331Z,10.91
2022-10-19T15:21:35.001Z,10.84
2022-10-19T15:24:07.405Z,10.85
2022-10-19T15:26:35.727Z,10.76
2022-10-19T15:29:12.849Z,10.68
2022-10-19T15:31:40.472Z,10.62
2022-10-19T15:34:20.528Z,10.62
2022-10-19T15:36:55.940Z,10.54
2022-10-19T15:39:37.818Z,10.52
2022-10-19T15:42:26.877Z,10.49
2022-10-19T15:44:54.613Z,10.44
2022-10-19T15:47:23.412Z,10.37
2022-10-19T15:49:52.521Z,10.44
2022-10-19T15:52:21.946Z,10.39
2022-10-19T15:54:53.890Z,10.34
2022-10-19T15:57:24.518Z,10.32
2022-10-19T15:59:52.229Z,10.14
2022-10-19T16:02:19.834Z,10.14
2022-10-19T16:04:47.599Z,10.05
2022-10-19T16:07:17.828Z,9.91
2022-10-19T16:09:45.526Z,9.77
2022-10-19T16:12:13.177Z,9.70
2022-10-19T16:14:41.151Z,9.64
2022-10-19T16:17:10.218Z,9.64
2022-10-19T16:19:37.881Z,9.58
2022-10-19T16:22:05.853Z,9.42
2022-10-19T16:24:33.550Z,9.35
2022-10-19T16:27:01.248Z,9.28
2022-10-19T16:29:29.172Z,9.22
2022-10-19T16:31:57.104Z,9.15
2022-10-19T16:34:24.734Z,8.98
2022-10-19T16:36:52.495Z,8.83
2022-10-19T16:39:20.139Z,8.76
2022-10-19T16:41:47.787Z,8.67
2022-10-19T16:44:16.105Z,8.55
2022-10-19T16:46:43.745Z,8.47
2022-10-19T16:49:11.360Z,8.35
2022-10-19T16:51:40.394Z,8.24
2022-10-19T16:54:10.270Z,8.07
2022-10-19T16:56:42.692Z,7.96
2022-10-19T16:59:11.008Z,7.78
2022-10-19T17:01:38.987Z,7.71
2022-10-19T17:04:07.311Z,7.58
2022-10-19T17:06:35.441Z,7.51
2022-10-19T17:11:51.525Z,7.38
2022-10-19T17:14:19.257Z,7.33
2022-10-19T17:16:46.961Z,7.23
2022-10-19T17:19:14.690Z,7.20
2022-10-19T17:21:42.707Z,7.14
2022-10-19T17:24:18.662Z,7.05
2022-10-19T17:26:50.547Z,6.95
2022-10-19T17:29:18.697Z,6.82
2022-10-19T17:31:46.809Z,6.63
2022-10-19T17:34:15.227Z,6.58
2022-10-19T17:36:46.696Z,6.49
2022-10-19T17:39:17.988Z,6.33
2022-10-19T17:41:46.459Z,6.32
2022-10-19T17:44:14.741Z,6.29
2022-10-19T17:46:42.621Z,6.21
2022-10-19T17:49:10.393Z,6.19
2022-10-19T17:51:38.977Z,6.15
2022-10-19T17:54:08.856Z,6.12
2022-10-19T17:56:37.110Z,6.07
2022-10-19T17:59:08.000Z,6.08
2022-10-19T18:01:36.472Z,6.03
2022-10-19T18:04:04.874Z,5.98
2022-10-19T18:06:33.739Z,5.95
2022-10-19T18:09:02.413Z,5.88
2022-10-19T18:11:31.481Z,5.80
2022-10-19T18:14:00.598Z,5.74
2022-10-19T18:16:29.811Z,5.68
2022-10-19T18:18:58.515Z,5.62
2022-10-19T18:21:28.302Z,5.52
2022-10-19T18:23:56.786Z,5.51
2022-10-19T18:26:25.605Z,5.46
2022-10-19T18:28:54.359Z,5.44
2022-10-19T18:31:24.126Z,5.42
2022-10-19T18:34:02.568Z,5.42
2022-10-19T18:36:30.978Z,5.38
2022-10-19T18:39:03.238Z,5.36
2022-10-19T18:41:30.940Z,5.30
2022-10-19T18:44:02.065Z,5.19
2022-10-19T18:46:33.199Z,5.13
2022-10-19T18:49:01.062Z,5.07
2022-10-19T18:51:29.322Z,5.02
2022-10-19T18:53:57.237Z,4.98
2022-10-19T18:56:25.305Z,4.92
2022-10-19T18:58:53.106Z,4.86
2022-10-19T19:01:26.657Z,4.86
2022-10-19T19:03:56.473Z,4.82
2022-10-19T19:06:26.081Z,4.80
2022-10-19T19:08:54.566Z,4.77
2022-10-19T19:11:23.638Z,4.73
2022-10-19T19:13:52.585Z,4.62
2022-10-19T19:16:21.239Z,4.49
2022-10-19T19:18:49.186Z,4.41
2022-10-19T19:21:24.545Z,4.40
2022-10-19T19:23:53.204Z,4.38
2022-10-19T19:26:21.934Z,4.35
2022-10-19T19:28:51.728Z,4.31
2022-10-19T19:31:20.213Z,4.23
2022-10-19T19:33:48.295Z,4.14
2022-10-19T19:36:17.198Z,4.10
2022-10-19T19:38:44.989Z,4.06
2022-10-19T19:41:14.101Z,4.06
2022-10-19T19:43:42.719Z,4.06
2022-10-19T19:46:16.687Z,4.00
2022-10-19T19:48:46.066Z,3.95
2022-10-19T19:51:15.196Z,3.92
2022-10-19T19:53:43.380Z,3.85
2022-10-19T19:56:12.171Z,3.80
2022-10-19T19:58:41.100Z,3.74
2022-10-19T20:01:16.121Z,3.69
2022-10-19T20:03:44.190Z,3.70
2022-10-19T20:06:12.210Z,3.66
2022-10-19T20:08:39.989Z,3.60
2022-10-19T20:11:09.658Z,3.66
2022-10-19T20:13:37.865Z,3.61
2022-10-19T20:16:12.894Z,3.57
2022-10-19T20:18:41.606Z,3.52
2022-10-19T20:21:10.147Z,3.45
2022-10-19T20:23:38.726Z,3.38
2022-10-19T20:26:06.617Z,3.33
2022-10-19T20:28:34.595Z,3.29
2022-10-19T20:31:03.858Z,3.25
2022-10-19T20:33:32.507Z,3.22
2022-10-19T20:36:07.046Z,3.18
2022-10-19T20:38:35.848Z,3.13
2022-10-19T20:41:07.063Z,3.05
2022-10-19T20:43:37.103Z,3.01
2022-10-19T20:46:06.385Z,2.99
2022-10-19T20:48:34.144Z,2.98
2022-10-19T20:51:16.077Z,2.96
2022-10-19T20:53:47.891Z,2.95
2022-10-19T20:56:17.764Z,2.91
2022-10-19T20:58:45.531Z,2.86
2022-10-19T21:01:15.057Z,2.82
2022-10-19T21:03:52.532Z,2.80
2022-10-19T21:06:21.011Z,2.80
2022-10-19T21:08:48.713Z,2.80
2022-10-19T21:11:17.569Z,2.81
2022-10-19T21:13:45.790Z,2.75
2022-10-19T21:16:15.103Z,2.72
2022-10-19T21:18:43.813Z,2.71
2022-10-19T21:21:16.667Z,2.66
2022-10-19T21:23:45.299Z,2.61
2022-10-19T21:26:13.436Z,2.58
2022-10-19T21:28:45.542Z,2.53
2022-10-19T21:31:13.842Z,2.40
2022-10-19T21:33:41.534Z,2.29
2022-10-19T21:36:09.841Z,2.21
2022-10-19T21:38:37.712Z,2.16
2022-10-19T21:41:06.876Z,2.10
2022-10-19T21:43:34.740Z,2.07
2022-10-19T21:46:03.640Z,2.07
2022-10-19T21:48:31.508Z,1.99
2022-10-19T21:50:59.210Z,1.89
2022-10-19T21:53:26.854Z,1.76
2022-10-19T21:55:54.539Z,1.69
2022-10-19T21:58:22.414Z,1.63
2022-10-19T22:00:52.519Z,1.57
2022-10-19T22:03:20.418Z,1.53
2022-10-19T22:05:51.722Z,1.53
2022-10-19T22:08:19.752Z,1.48
2022-10-19T22:10:47.370Z,1.47
2022-10-19T22:13:15.029Z,1.47
2022-10-19T22:15:42.647Z,1.49
2022-10-19T22:18:10.369Z,1.48
2022-10-19T22:20:39.561Z,1.48
2022-10-19T22:23:07.685Z,1.46
2022-10-19T22:25:35.752Z,1.42
2022-10-19T22:28:03.712Z,1.40
2022-10-19T22:30:31.434Z,1.40
2022-10-19T22:32:59.185Z,1.49
2022-10-19T22:35:27.265Z,1.46
2022-10-19T22:37:54.925Z,1.45
2022-10-19T22:40:22.531Z,1.48
2022-10-19T22:42:50.153Z,1.44
2022-10-19T22:45:17.786Z,1.44
2022-10-19T22:47:45.395Z,1.42
2022-10-19T22:50:13.116Z,1.42
2022-10-19T22:52:40.754Z,1.43
2022-10-19T22:55:08.473Z,1.43
2022-10-19T22:57:36.080Z,1.39
2022-10-19T23:00:04.172Z,1.35
2022-10-19T23:02:31.825Z,1.34
2022-10-19T23:04:59.445Z,1.32
2022-10-19T23:07:27.074Z,1.29
2022-10-19T23:09:54.714Z,1.23
2022-10-19T23:12:22.381Z,1.18
2022-10-19T23:14:49.975Z,1.14
2022-10-19T23:17:17.598Z,1.10
2022-10-19T23:19:46.308Z,1.05
2022-10-19T23:22:13.937Z,1.03
2022-10-19T23:24:41.637Z,0.98
2022-10-19T23:27:09.781Z,0.90
2022-10-19T23:29:37.469Z,0.85
2022-10-19T23:32:05.272Z,0.83
2022-10-19T23:34:32.872Z,0.78
2022-10-19T23:37:00.585Z,0.74
2022-10-19T23:39:28.229Z,0.71
2022-10-19T23:41:55.833Z,0.71
2022-10-19T23:44:23.533Z,0.72
2022-10-19T23:46:51.125Z,0.75
2022-10-19T23:49:18.822Z,0.75
2022-10-19T23:51:46.437Z,0.72
2022-10-19T23:54:14.288Z,0.72
2022-10-19T23:56:42.006Z,0.74
2022-10-19T23:59:09.931Z,0.74
